Putnam Heights, Connecticut
Current Conditions -  °F | °C
As of 3:52 AM on Thursday 23 Oct 2014 (Local Time) from KIJD Reporting Station
Overcast Overcast  
Wind Chill: 51°   Ceiling: 2000
Heat Index: 51°   Visibility: 10mi
Dew Point: 44°   Wind: 18mph
Humidity: 77%   Direction: 30°NNE
Pressure: 29.69"   Gusts: 25mph
Location:  41.91°N, 71.8739°W
Report Text: KIJD 230752Z AUTO 03016G22KT 10SM OVC020 11/07 A2969 RMK AO2 PK WND 02029/0708 SLP054 T01060067
Loading
Personal Weather Stations






























Interactive Weather Map
Tropical Storm Tracking
New forecast layout! Learn more

10-Day Weather Forecast

Advertisements
Track Severe Weather on mobile